createdAt,value
2018-06-29T00:00:58.046Z,15.84
2018-06-29T00:03:30.223Z,15.93
2018-06-29T00:06:02.534Z,15.94
2018-06-29T00:08:34.830Z,15.88
2018-06-29T00:11:07.761Z,15.93
2018-06-29T00:13:40.721Z,15.88
2018-06-29T00:16:13.495Z,15.85
2018-06-29T00:18:46.590Z,15.90
2018-06-29T00:21:19.659Z,15.87
2018-06-29T00:23:57.291Z,15.93
2018-06-29T00:26:30.260Z,15.93
2018-06-29T00:29:02.618Z,15.92
2018-06-29T00:31:36.697Z,15.93
2018-06-29T00:34:14.179Z,15.89
2018-06-29T00:36:48.762Z,15.90
2018-06-29T00:39:22.769Z,15.97
2018-06-29T00:41:55.088Z,15.91
2018-06-29T00:44:28.455Z,15.95
2018-06-29T00:47:04.224Z,16.00
2018-06-29T00:49:37.055Z,15.95
2018-06-29T00:52:13.900Z,15.89
2018-06-29T00:54:48.659Z,15.84
2018-06-29T00:57:21.899Z,15.83
2018-06-29T00:59:57.632Z,15.84
2018-06-29T01:02:30.490Z,15.73
2018-06-29T01:05:07.421Z,15.66
2018-06-29T01:07:40.391Z,15.62
2018-06-29T01:10:14.703Z,15.62
2018-06-29T01:12:53.826Z,15.63
2018-06-29T01:15:31.717Z,15.62
2018-06-29T01:18:04.501Z,15.60
2018-06-29T01:20:40.394Z,15.58
2018-06-29T01:23:15.953Z,15.57
2018-06-29T01:25:53.503Z,15.51
2018-06-29T01:28:25.819Z,15.47
2018-06-29T01:31:02.979Z,15.44
2018-06-29T01:33:37.423Z,15.50
2018-06-29T01:36:11.223Z,15.50
2018-06-29T01:38:45.725Z,15.49
2018-06-29T01:41:18.543Z,15.48
2018-06-29T01:43:54.824Z,15.43
2018-06-29T01:46:33.329Z,15.47
2018-06-29T01:49:06.578Z,15.41
2018-06-29T01:51:38.951Z,15.40
2018-06-29T01:54:11.551Z,15.40
2018-06-29T01:56:45.111Z,15.45
2018-06-29T01:59:21.729Z,15.43
2018-06-29T02:01:54.293Z,14.79
2018-06-29T02:04:27.690Z,15.42
2018-06-29T02:07:02.306Z,15.41
2018-06-29T02:09:35.576Z,15.47
2018-06-29T02:12:11.183Z,15.48
2018-06-29T02:14:44.459Z,15.47
2018-06-29T02:17:19.433Z,15.50
2018-06-29T02:19:51.790Z,15.52
2018-06-29T02:22:27.930Z,15.57
2018-06-29T02:25:01.891Z,15.56
2018-06-29T02:27:34.194Z,15.55
2018-06-29T02:30:09.796Z,15.53
2018-06-29T02:35:27.281Z,15.54
2018-06-29T02:38:03.292Z,15.55
2018-06-29T02:40:37.933Z,15.56
2018-06-29T02:43:12.143Z,15.57
2018-06-29T02:45:47.276Z,15.57
2018-06-29T02:48:20.799Z,15.60
2018-06-29T02:50:56.345Z,15.54
2018-06-29T02:53:28.610Z,15.59
2018-06-29T02:56:00.771Z,15.52
2018-06-29T02:58:37.702Z,15.60
2018-06-29T03:01:10.635Z,15.55
2018-06-29T03:03:43.721Z,15.51
2018-06-29T03:06:17.676Z,15.52
2018-06-29T03:08:52.813Z,15.56
2018-06-29T03:11:26.297Z,15.55
2018-06-29T03:13:58.839Z,15.52
2018-06-29T03:16:34.338Z,15.53
2018-06-29T03:19:07.505Z,15.53
2018-06-29T03:21:41.540Z,15.50
2018-06-29T03:24:16.356Z,15.47
2018-06-29T03:26:48.653Z,15.46
2018-06-29T03:29:23.339Z,15.52
2018-06-29T03:31:58.757Z,15.56
2018-06-29T03:34:33.165Z,15.58
2018-06-29T03:37:08.816Z,15.55
2018-06-29T03:39:45.596Z,15.57
2018-06-29T03:42:18.700Z,15.54
2018-06-29T03:44:53.799Z,15.57
2018-06-29T03:47:25.826Z,15.55
2018-06-29T03:49:57.787Z,15.55
2018-06-29T03:52:29.743Z,15.53
2018-06-29T03:55:01.764Z,15.54
2018-06-29T03:57:33.744Z,15.55
2018-06-29T04:00:05.742Z,15.59
2018-06-29T04:02:37.928Z,15.62
2018-06-29T04:05:09.899Z,15.64
2018-06-29T04:07:41.867Z,15.67
2018-06-29T04:10:13.904Z,15.68
2018-06-29T04:12:45.900Z,15.79
2018-06-29T04:15:17.859Z,15.85
2018-06-29T04:17:49.795Z,15.91
2018-06-29T04:20:21.755Z,16.00
2018-06-29T04:22:53.774Z,16.04
2018-06-29T04:25:25.768Z,16.13
2018-06-29T04:27:57.755Z,16.15
2018-06-29T04:30:29.860Z,16.12
2018-06-29T04:33:01.829Z,16.07
2018-06-29T04:35:33.819Z,16.06
2018-06-29T04:38:05.824Z,16.06
2018-06-29T04:40:37.795Z,16.07
2018-06-29T04:43:09.775Z,16.14
2018-06-29T04:45:41.859Z,16.20
2018-06-29T04:48:13.893Z,16.35
2018-06-29T04:50:45.873Z,16.50
2018-06-29T04:53:17.866Z,16.69
2018-06-29T04:55:49.820Z,17.01
2018-06-29T04:58:21.836Z,17.26
2018-06-29T05:00:53.913Z,17.39
2018-06-29T05:03:25.804Z,17.68
2018-06-29T05:05:57.805Z,17.72
2018-06-29T05:08:29.760Z,17.60
2018-06-29T05:11:01.767Z,17.53
2018-06-29T05:13:33.799Z,17.41
2018-06-29T05:16:05.771Z,17.21
2018-06-29T05:18:37.734Z,17.16
2018-06-29T05:21:09.714Z,17.19
2018-06-29T05:23:41.675Z,17.32
2018-06-29T05:26:13.634Z,17.51
2018-06-29T05:28:45.695Z,17.50
2018-06-29T05:31:17.686Z,17.49
2018-06-29T05:33:49.643Z,17.29
2018-06-29T05:36:21.626Z,17.31
2018-06-29T05:38:53.579Z,17.18
2018-06-29T05:41:25.607Z,17.03
2018-06-29T05:43:57.569Z,17.00
2018-06-29T05:46:29.545Z,17.06
2018-06-29T05:49:01.569Z,17.02
2018-06-29T05:51:33.570Z,17.13
2018-06-29T05:54:05.712Z,17.18
2018-06-29T05:56:37.684Z,17.18
2018-06-29T05:59:09.675Z,17.31
2018-06-29T06:01:41.725Z,17.21
2018-06-29T06:04:13.709Z,17.16
2018-06-29T06:06:45.723Z,17.19
2018-06-29T06:09:17.739Z,17.05
2018-06-29T06:11:49.735Z,17.05
2018-06-29T06:14:21.718Z,16.98
2018-06-29T06:16:53.686Z,16.92
2018-06-29T06:19:37.179Z,16.89
2018-06-29T06:22:15.927Z,16.92
2018-06-29T06:24:47.887Z,16.94
2018-06-29T06:27:19.898Z,17.06
2018-06-29T06:29:51.858Z,17.05
2018-06-29T06:32:24.255Z,17.15
2018-06-29T06:34:56.306Z,17.19
2018-06-29T06:37:28.376Z,17.27
2018-06-29T06:40:00.446Z,17.31
2018-06-29T06:42:32.474Z,17.41
2018-06-29T06:45:05.099Z,17.53
2018-06-29T06:47:37.120Z,17.82
2018-06-29T06:50:09.115Z,18.04
2018-06-29T06:52:41.108Z,18.23
2018-06-29T06:55:13.100Z,18.12
2018-06-29T06:57:45.082Z,18.43
2018-06-29T07:00:17.063Z,18.89
2018-06-29T07:02:49.041Z,19.32
2018-06-29T07:05:21.017Z,20.06
2018-06-29T07:07:52.992Z,20.36
2018-06-29T07:10:24.994Z,20.85
2018-06-29T07:12:57.048Z,21.78
2018-06-29T07:15:29.125Z,23.23
2018-06-29T07:18:01.188Z,23.14
2018-06-29T07:20:33.361Z,24.18
2018-06-29T07:23:05.466Z,24.60
2018-06-29T07:25:37.474Z,24.32
2018-06-29T07:28:09.563Z,22.64
2018-06-29T07:30:41.552Z,22.20
2018-06-29T07:33:13.546Z,22.34
2018-06-29T07:35:45.528Z,24.78
2018-06-29T07:38:17.848Z,25.13
2018-06-29T07:40:49.835Z,24.35
2018-06-29T07:43:22.150Z,23.66
2018-06-29T07:45:54.239Z,23.15
2018-06-29T07:48:26.286Z,22.50
2018-06-29T07:50:58.371Z,22.35
2018-06-29T07:53:30.355Z,22.02
2018-06-29T07:56:02.383Z,21.97
2018-06-29T07:58:34.454Z,21.97
2018-06-29T08:01:06.510Z,22.52
2018-06-29T08:03:38.514Z,21.89
2018-06-29T08:06:10.507Z,22.01
2018-06-29T08:08:42.599Z,21.97
2018-06-29T08:11:14.668Z,22.23
2018-06-29T08:13:46.727Z,22.12
2018-06-29T08:16:18.772Z,22.87
2018-06-29T08:18:50.867Z,25.01
2018-06-29T08:21:22.932Z,25.70
2018-06-29T08:23:59.674Z,25.63
2018-06-29T08:26:31.659Z,24.78
2018-06-29T08:29:03.663Z,25.18
2018-06-29T08:31:35.683Z,25.19
2018-06-29T08:34:07.723Z,25.25
2018-06-29T08:36:39.726Z,25.42
2018-06-29T08:39:11.700Z,25.38
2018-06-29T08:41:43.696Z,26.00
2018-06-29T08:44:15.713Z,25.52
2018-06-29T08:46:47.704Z,25.01
2018-06-29T08:49:19.709Z,26.13
2018-06-29T08:51:51.803Z,26.51
2018-06-29T08:54:23.782Z,26.55
2018-06-29T08:56:55.818Z,26.06
2018-06-29T08:59:27.856Z,25.62
2018-06-29T09:01:59.904Z,26.54
2018-06-29T09:04:32.009Z,27.36
2018-06-29T09:07:04.049Z,26.51
2018-06-29T09:09:36.141Z,25.89
2018-06-29T09:12:08.211Z,25.55
2018-06-29T09:14:40.170Z,25.05
2018-06-29T09:17:12.174Z,24.13
2018-06-29T09:19:44.155Z,23.67
2018-06-29T09:22:16.184Z,23.72
2018-06-29T09:24:48.177Z,23.58
2018-06-29T09:27:20.175Z,23.74
2018-06-29T09:29:52.171Z,23.88
2018-06-29T09:32:24.135Z,24.13
2018-06-29T09:34:56.141Z,24.40
2018-06-29T09:37:28.182Z,24.95
2018-06-29T09:40:00.184Z,25.48
2018-06-29T09:42:32.234Z,25.89
2018-06-29T09:45:04.255Z,26.15
2018-06-29T09:47:36.254Z,26.73
2018-06-29T09:50:08.276Z,26.21
2018-06-29T09:52:40.255Z,25.87
2018-06-29T09:55:12.224Z,26.92
2018-06-29T09:57:44.219Z,26.97
2018-06-29T10:00:20.791Z,26.99
2018-06-29T10:02:52.802Z,27.03
2018-06-29T10:05:25.297Z,27.62
2018-06-29T10:07:57.302Z,27.87
2018-06-29T10:10:29.302Z,28.08
2018-06-29T10:13:01.486Z,28.94
2018-06-29T10:15:33.476Z,29.01
2018-06-29T10:18:05.518Z,29.65
2018-06-29T10:20:37.535Z,31.31
2018-06-29T10:23:09.546Z,31.40
2018-06-29T10:25:41.577Z,31.96
2018-06-29T10:28:13.629Z,31.82
2018-06-29T10:30:45.627Z,32.26
2018-06-29T10:33:17.660Z,31.21
2018-06-29T10:35:49.656Z,30.94
2018-06-29T10:38:21.692Z,30.46
2018-06-29T10:40:53.767Z,29.74
2018-06-29T10:43:25.758Z,30.53
2018-06-29T10:45:57.799Z,30.50
2018-06-29T10:48:29.804Z,30.78
2018-06-29T10:51:01.800Z,30.39
2018-06-29T10:53:33.795Z,28.75
2018-06-29T10:56:05.766Z,30.07
2018-06-29T10:58:38.059Z,30.83
2018-06-29T11:01:10.067Z,30.98
2018-06-29T11:03:42.161Z,31.48
2018-06-29T11:06:14.184Z,30.97
2018-06-29T11:08:46.164Z,31.67
2018-06-29T11:11:18.199Z,30.90
2018-06-29T11:13:50.196Z,31.51
2018-06-29T11:16:22.192Z,31.56
2018-06-29T11:18:54.181Z,33.05
2018-06-29T11:21:26.138Z,33.32
2018-06-29T11:23:58.148Z,33.70
2018-06-29T11:26:30.204Z,33.81
2018-06-29T11:29:02.214Z,33.16
2018-06-29T11:31:34.180Z,32.26
2018-06-29T11:34:06.539Z,33.05
2018-06-29T11:36:38.524Z,32.32
2018-06-29T11:39:12.535Z,31.03
2018-06-29T11:41:44.552Z,30.76
2018-06-29T11:44:16.603Z,31.39
2018-06-29T11:46:48.539Z,32.58
2018-06-29T11:49:20.523Z,32.01
2018-06-29T11:51:52.523Z,32.37
2018-06-29T11:54:24.527Z,31.64
2018-06-29T11:56:56.524Z,32.91
2018-06-29T11:59:28.563Z,32.14
2018-06-29T12:02:00.559Z,31.59
2018-06-29T12:04:32.648Z,30.63
2018-06-29T12:07:04.726Z,30.54
2018-06-29T12:09:36.671Z,30.76
2018-06-29T12:12:08.752Z,32.53
2018-06-29T12:14:40.794Z,33.21
2018-06-29T12:17:12.846Z,32.03
2018-06-29T12:19:44.939Z,31.13
2018-06-29T12:22:16.968Z,29.84
2018-06-29T12:24:48.947Z,29.51
2018-06-29T12:27:20.928Z,29.32
2018-06-29T12:29:52.914Z,29.25
2018-06-29T12:32:24.901Z,30.02
2018-06-29T12:34:56.971Z,31.44
2018-06-29T12:37:29.547Z,32.34
2018-06-29T12:40:01.626Z,32.42
2018-06-29T12:42:33.667Z,31.80
2018-06-29T12:45:05.723Z,32.51
2018-06-29T12:47:37.882Z,33.74
2018-06-29T12:50:09.908Z,34.93
2018-06-29T12:52:41.889Z,34.58
2018-06-29T12:55:13.971Z,36.00
2018-06-29T12:57:45.989Z,34.27
2018-06-29T13:00:17.939Z,32.41
2018-06-29T13:02:49.899Z,32.19
2018-06-29T13:05:21.887Z,33.04
2018-06-29T13:07:53.851Z,32.91
2018-06-29T13:10:25.843Z,32.63
2018-06-29T13:12:57.824Z,32.30
2018-06-29T13:15:29.811Z,32.00
2018-06-29T13:18:01.803Z,31.80
2018-06-29T13:20:33.779Z,31.06
2018-06-29T13:23:05.778Z,31.05
2018-06-29T13:25:37.755Z,30.55
2018-06-29T13:28:09.892Z,29.94
2018-06-29T13:30:41.950Z,29.48
2018-06-29T13:33:13.935Z,29.84
2018-06-29T13:35:45.962Z,30.47
2018-06-29T13:38:17.947Z,31.52
2018-06-29T13:40:49.942Z,31.87
2018-06-29T13:43:21.992Z,31.44
2018-06-29T13:45:53.986Z,31.02
2018-06-29T13:48:25.979Z,31.10
2018-06-29T13:50:57.991Z,30.56
2018-06-29T13:53:30.149Z,30.71
2018-06-29T13:56:02.162Z,30.74
2018-06-29T13:58:34.178Z,30.43
2018-06-29T14:01:06.195Z,30.38
2018-06-29T14:03:38.184Z,31.06
2018-06-29T14:06:10.193Z,31.76
2018-06-29T14:08:42.206Z,31.67
2018-06-29T14:11:14.228Z,31.45
2018-06-29T14:13:46.299Z,32.89
2018-06-29T14:16:18.290Z,34.52
2018-06-29T14:18:50.270Z,35.00
2018-06-29T14:21:22.275Z,34.96
2018-06-29T14:23:54.744Z,34.10
2018-06-29T14:26:26.719Z,32.39
2018-06-29T14:28:58.757Z,31.84
2018-06-29T14:31:37.400Z,31.29
2018-06-29T14:34:09.419Z,30.12
2018-06-29T14:36:41.431Z,29.71
2018-06-29T14:39:13.439Z,28.94
2018-06-29T14:41:45.476Z,28.85
2018-06-29T14:44:17.466Z,29.24
2018-06-29T14:46:49.516Z,29.14
2018-06-29T14:50:46.139Z,29.60
2018-06-29T14:53:18.210Z,30.79
2018-06-29T14:55:50.518Z,33.08
2018-06-29T14:58:22.564Z,33.46
2018-06-29T15:00:54.621Z,32.52
2018-06-29T15:03:26.680Z,32.78
2018-06-29T15:05:58.722Z,32.60
2018-06-29T15:08:30.747Z,32.87
2018-06-29T15:11:02.791Z,34.35
2018-06-29T15:13:34.776Z,32.71
2018-06-29T15:16:06.820Z,31.45
2018-06-29T15:18:38.835Z,30.73
2018-06-29T15:21:10.882Z,30.54
2018-06-29T15:23:43.075Z,30.10
2018-06-29T15:26:15.476Z,29.78
2018-06-29T15:31:45.565Z,30.38
2018-06-29T15:34:17.684Z,31.14
2018-06-29T15:36:49.803Z,30.42
2018-06-29T15:39:21.932Z,30.16
2018-06-29T15:41:54.074Z,30.24
2018-06-29T15:44:26.192Z,30.62
2018-06-29T15:46:58.285Z,30.53
2018-06-29T15:49:30.388Z,30.13
2018-06-29T15:52:03.191Z,30.33
2018-06-29T15:54:35.351Z,31.74
2018-06-29T15:57:07.491Z,32.34
2018-06-29T15:59:40.824Z,33.10
2018-06-29T16:02:13.059Z,33.28
2018-06-29T16:04:45.124Z,34.31
2018-06-29T16:07:17.234Z,35.21
2018-06-29T16:09:49.355Z,35.41
2018-06-29T16:12:21.410Z,34.88
2018-06-29T16:14:53.591Z,35.23
2018-06-29T16:17:25.737Z,33.92
2018-06-29T16:19:57.861Z,33.33
2018-06-29T16:22:30.011Z,33.49
2018-06-29T16:25:02.132Z,34.00
2018-06-29T16:27:34.234Z,34.37
2018-06-29T16:30:07.047Z,34.84
2018-06-29T16:32:39.168Z,34.64
2018-06-29T16:35:11.464Z,35.11
2018-06-29T16:37:43.576Z,35.18
2018-06-29T16:40:15.624Z,35.00
2018-06-29T16:42:47.681Z,32.91
2018-06-29T16:45:19.764Z,34.26
2018-06-29T16:47:51.890Z,32.85
2018-06-29T16:50:24.039Z,32.57
2018-06-29T16:52:56.102Z,32.82
2018-06-29T16:55:28.189Z,31.36
2018-06-29T16:58:00.349Z,31.27
2018-06-29T17:00:32.692Z,31.26
2018-06-29T17:03:04.995Z,31.84
2018-06-29T17:05:37.148Z,31.78
2018-06-29T17:08:09.252Z,31.80
2018-06-29T17:10:41.352Z,31.12
2018-06-29T17:13:14.272Z,30.75
2018-06-29T17:15:46.448Z,30.79
2018-06-29T17:18:18.609Z,30.47
2018-06-29T17:20:50.806Z,30.29
2018-06-29T17:23:22.871Z,30.12
2018-06-29T17:25:55.056Z,29.99
2018-06-29T17:28:27.182Z,29.76
2018-06-29T17:31:00.273Z,29.72
2018-06-29T17:33:32.455Z,29.48
2018-06-29T17:36:04.732Z,29.53
2018-06-29T17:38:36.810Z,29.67
2018-06-29T17:41:08.920Z,29.47
2018-06-29T17:43:40.993Z,29.75
2018-06-29T17:46:13.128Z,29.87
2018-06-29T17:48:45.273Z,29.51
2018-06-29T17:51:17.396Z,28.99
2018-06-29T17:53:49.511Z,28.84
2018-06-29T17:56:21.534Z,28.73
2018-06-29T17:58:53.624Z,28.60
2018-06-29T18:01:25.728Z,28.46
2018-06-29T18:03:57.815Z,28.19
2018-06-29T18:06:29.968Z,28.31
2018-06-29T18:09:02.255Z,28.43
2018-06-29T18:11:34.416Z,28.46
2018-06-29T18:14:06.577Z,28.51
2018-06-29T18:16:39.695Z,28.52
2018-06-29T18:19:11.831Z,28.55
2018-06-29T18:21:43.902Z,28.65
2018-06-29T18:24:16.024Z,28.75
2018-06-29T18:26:48.195Z,28.69
2018-06-29T18:29:20.329Z,28.89
2018-06-29T18:31:52.495Z,28.72
2018-06-29T18:34:24.615Z,28.18
2018-06-29T18:36:56.754Z,28.05
2018-06-29T18:39:28.880Z,27.81
2018-06-29T18:42:01.075Z,27.79
2018-06-29T18:44:33.149Z,27.50
2018-06-29T18:47:05.357Z,27.30
2018-06-29T18:49:37.466Z,27.14
2018-06-29T18:52:09.555Z,26.92
2018-06-29T18:54:41.680Z,26.70
2018-06-29T18:57:13.780Z,26.49
2018-06-29T18:59:45.908Z,26.25
2018-06-29T19:02:17.991Z,26.14
2018-06-29T19:04:50.054Z,26.00
2018-06-29T19:07:22.151Z,25.85
2018-06-29T19:09:54.243Z,25.66
2018-06-29T19:12:26.311Z,25.58
2018-06-29T19:14:58.437Z,25.43
2018-06-29T19:17:30.592Z,25.26
2018-06-29T19:20:02.769Z,25.18
2018-06-29T19:22:34.879Z,25.13
2018-06-29T19:25:07.081Z,24.98
2018-06-29T19:27:39.155Z,24.88
2018-06-29T19:30:11.296Z,24.77
2018-06-29T19:32:43.393Z,24.78
2018-06-29T19:35:15.480Z,24.66
2018-06-29T19:37:47.864Z,24.59
2018-06-29T19:40:19.948Z,24.48
2018-06-29T19:42:52.097Z,24.41
2018-06-29T19:45:24.248Z,24.31
2018-06-29T19:47:56.544Z,24.36
2018-06-29T19:50:28.659Z,24.16
2018-06-29T19:53:00.759Z,24.04
2018-06-29T19:55:32.935Z,23.93
2018-06-29T19:58:05.096Z,23.85
2018-06-29T20:00:37.205Z,23.81
2018-06-29T20:03:09.295Z,23.71
2018-06-29T20:05:41.416Z,23.61
2018-06-29T20:08:13.483Z,23.50
2018-06-29T20:10:45.625Z,23.36
2018-06-29T20:13:17.717Z,23.27
2018-06-29T20:15:49.917Z,23.34
2018-06-29T20:18:21.997Z,23.23
2018-06-29T20:20:54.136Z,23.25
2018-06-29T20:23:26.206Z,23.16
2018-06-29T20:25:58.332Z,23.10
2018-06-29T20:28:30.380Z,22.97
2018-06-29T20:31:02.502Z,22.85
2018-06-29T20:33:34.562Z,22.76
2018-06-29T20:36:06.658Z,22.68
2018-06-29T20:38:38.795Z,22.66
2018-06-29T20:41:10.808Z,22.66
2018-06-29T20:43:42.979Z,22.66
2018-06-29T20:46:15.088Z,22.57
2018-06-29T20:48:47.180Z,22.63
2018-06-29T20:51:19.296Z,22.55
2018-06-29T20:53:51.436Z,22.52
2018-06-29T20:56:23.592Z,22.44
2018-06-29T20:58:55.712Z,22.38
2018-06-29T21:01:27.780Z,22.32
2018-06-29T21:03:59.891Z,22.11
2018-06-29T21:06:32.042Z,21.96
2018-06-29T21:09:06.745Z,21.82
2018-06-29T21:11:39.274Z,21.72
2018-06-29T21:14:11.853Z,21.62
2018-06-29T21:16:44.023Z,21.45
2018-06-29T21:19:16.164Z,21.41
2018-06-29T21:21:48.412Z,21.20
2018-06-29T21:24:20.479Z,21.06
2018-06-29T21:26:52.555Z,20.85
2018-06-29T21:29:24.653Z,20.71
2018-06-29T21:31:57.466Z,20.77
2018-06-29T21:34:29.575Z,20.59
2018-06-29T21:37:01.737Z,20.45
2018-06-29T21:39:33.836Z,20.39
2018-06-29T21:42:05.899Z,20.39
2018-06-29T21:44:38.040Z,20.33
2018-06-29T21:47:10.137Z,20.17
2018-06-29T21:49:42.248Z,20.09
2018-06-29T21:52:14.415Z,20.06
2018-06-29T21:54:46.533Z,19.98
2018-06-29T21:57:18.665Z,19.87
2018-06-29T21:59:50.839Z,19.70
2018-06-29T22:02:22.923Z,19.67
2018-06-29T22:04:55.072Z,19.56
2018-06-29T22:07:27.093Z,19.47
2018-06-29T22:09:59.187Z,19.39
2018-06-29T22:12:31.280Z,19.32
2018-06-29T22:15:03.439Z,19.28
2018-06-29T22:17:35.536Z,19.26
2018-06-29T22:20:07.637Z,19.44
2018-06-29T22:22:39.777Z,19.36
2018-06-29T22:25:11.883Z,19.27
2018-06-29T22:27:44.024Z,19.20
2018-06-29T22:30:16.740Z,19.16
2018-06-29T22:32:48.951Z,19.07
2018-06-29T22:35:21.680Z,19.12
2018-06-29T22:37:53.935Z,19.02
2018-06-29T22:40:26.018Z,18.92
2018-06-29T22:42:58.155Z,19.02
2018-06-29T22:45:30.263Z,18.86
2018-06-29T22:48:02.426Z,18.75
2018-06-29T22:50:34.579Z,18.66
2018-06-29T22:53:06.726Z,18.60
2018-06-29T22:55:38.830Z,18.42
2018-06-29T22:58:10.959Z,18.30
2018-06-29T23:00:43.048Z,18.30
2018-06-29T23:03:15.180Z,18.28
2018-06-29T23:05:47.293Z,18.21
2018-06-29T23:08:19.467Z,18.04
2018-06-29T23:10:51.633Z,17.95
2018-06-29T23:13:23.781Z,17.87
2018-06-29T23:15:55.943Z,17.83
2018-06-29T23:18:28.111Z,17.78
2018-06-29T23:21:00.192Z,17.67
2018-06-29T23:23:32.304Z,17.59
2018-06-29T23:26:04.445Z,17.52
2018-06-29T23:28:36.746Z,17.58
2018-06-29T23:31:08.823Z,17.55
2018-06-29T23:33:40.916Z,17.56
2018-06-29T23:36:13.001Z,17.53
2018-06-29T23:38:45.092Z,17.49
2018-06-29T23:41:17.179Z,17.45
2018-06-29T23:43:49.302Z,17.46
2018-06-29T23:46:21.419Z,17.41
2018-06-29T23:48:53.542Z,17.34
2018-06-29T23:51:25.651Z,17.27
2018-06-29T23:53:57.872Z,17.39
2018-06-29T23:56:29.990Z,17.39
2018-06-29T23:59:02.119Z,17.43
